Time;durP1;ratioP1;P1;durP2;ratioP2;P2;SDS_P1;SDS_P2;PMS_P1;PMS_P2;Temp;Humidity;BMP_temperature;BMP_pressure;BME280_temperature;BME280_humidity;BME280_pressure;Samples;Min_cycle;Max_cycle;Signal;HPM_P1;HPM_P2
2023/12/19 00:00:45;;;;;;;12.67;12.03;;;;;;;1.95;100.00;93964.41;5048891;28;20261;-74
2023/12/19 00:03:11;;;;;;;11.10;10.50;;;;;;;1.67;100.00;93916.41;5041182;28;20264;-74
2023/12/19 00:05:37;;;;;;;11.33;10.73;;;;;;;1.92;100.00;93954.50;5049243;28;20186;-75
2023/12/19 00:08:02;;;;;;;12.50;11.70;;;;;;;2.02;100.00;93949.78;5046995;28;20226;-74
2023/12/19 00:10:27;;;;;;;12.60;11.97;;;;;;;1.99;100.00;93955.31;5039859;28;20250;-74
2023/12/19 00:12:53;;;;;;;11.37;10.77;;;;;;;1.90;100.00;93946.19;5045681;28;20305;-76
2023/12/19 00:15:22;;;;;;;10.33;9.67;;;;;;;1.89;100.00;93958.25;5048464;28;20224;-74
2023/12/19 00:17:47;;;;;;;10.83;10.33;;;;;;;1.81;100.00;93952.47;5061405;28;20228;-74
2023/12/19 00:20:12;;;;;;;11.17;10.63;;;;;;;1.86;100.00;93968.13;5069055;28;20746;-74
2023/12/19 00:22:38;;;;;;;11.63;10.93;;;;;;;1.89;100.00;93965.16;5053401;28;20244;-74
2023/12/19 00:25:03;;;;;;;13.13;12.23;;;;;;;1.72;100.00;93953.63;5041746;28;20237;-74
2023/12/19 00:27:29;;;;;;;13.90;13.10;;;;;;;1.73;100.00;93950.84;5037372;28;20222;-74
2023/12/19 00:29:54;;;;;;;12.47;11.67;;;;;;;1.75;100.00;93963.53;5039782;28;20201;-74
2023/12/19 00:32:19;;;;;;;11.53;10.73;;;;;;;1.74;100.00;93969.69;5057769;28;20236;-74
2023/12/19 00:34:45;;;;;;;11.47;10.67;;;;;;;1.70;100.00;93971.06;5036371;28;20177;-74
2023/12/19 00:37:10;;;;;;;11.13;10.53;;;;;;;1.73;100.00;93965.53;5037976;28;20226;-75
2023/12/19 00:39:38;;;;;;;12.13;11.37;;;;;;;1.73;100.00;93961.16;5049039;28;20250;-74
2023/12/19 00:42:04;;;;;;;12.30;11.57;;;;;;;1.62;100.00;93966.84;5037671;28;20253;-75
2023/12/19 00:44:29;;;;;;;12.67;11.70;;;;;;;1.53;100.00;93973.94;5037110;28;20214;-74
2023/12/19 00:46:54;;;;;;;12.90;12.00;;;;;;;1.46;100.00;93955.09;5041717;28;20226;-75
2023/12/19 00:49:20;;;;;;;12.27;11.47;;;;;;;1.72;100.00;93980.16;5037806;28;20611;-75
2023/12/19 00:51:45;;;;;;;15.03;13.93;;;;;;;1.64;100.00;93973.41;5045367;28;20222;-75
2023/12/19 00:54:10;;;;;;;14.17;13.07;;;;;;;1.53;100.00;93965.41;5047992;28;20197;-75
2023/12/19 00:56:37;;;;;;;15.40;14.10;;;;;;;1.54;100.00;93960.09;5045950;28;20237;-75
2023/12/19 00:59:02;;;;;;;14.67;13.57;;;;;;;1.52;100.00;93938.91;5044543;28;20162;-74
2023/12/19 01:01:27;;;;;;;14.23;13.17;;;;;;;1.45;100.00;93950.94;5040907;28;20279;-74
2023/12/19 01:03:53;;;;;;;13.17;12.23;;;;;;;1.46;100.00;93955.09;5038826;28;20793;-74
2023/12/19 01:06:18;;;;;;;11.30;10.60;;;;;;;1.53;100.00;93953.34;5045262;28;20198;-75
2023/12/19 01:08:43;;;;;;;13.97;12.97;;;;;;;1.55;100.00;93953.16;5072159;28;20182;-74
2023/12/19 01:11:10;;;;;;;12.20;11.37;;;;;;;1.49;100.00;93944.41;5063124;28;20206;-74
2023/12/19 01:13:36;;;;;;;13.37;12.47;;;;;;;1.27;100.00;93899.22;5061990;28;20293;-73
2023/12/19 01:16:02;;;;;;;12.27;11.47;;;;;;;1.51;100.00;93946.78;5057348;28;20186;-74
2023/12/19 01:18:28;;;;;;;10.83;10.33;;;;;;;1.40;100.00;93919.84;5071242;28;20232;-74
2023/12/19 01:20:53;;;;;;;12.23;11.57;;;;;;;1.37;100.00;93933.09;5071627;28;20307;-75
2023/12/19 01:23:19;;;;;;;12.20;11.60;;;;;;;1.49;100.00;93931.53;5068195;28;20225;-74
2023/12/19 01:25:44;;;;;;;11.27;10.67;;;;;;;1.43;100.00;93932.31;5071320;28;20182;-74
2023/12/19 01:28:14;;;;;;;11.50;11.00;;;;;;;1.31;100.00;93925.31;5076705;28;20225;-73
2023/12/19 01:30:40;;;;;;;10.97;10.57;;;;;;;1.39;100.00;93928.56;5071272;28;20201;-73
2023/12/19 01:33:10;;;;;;;12.67;11.87;;;;;;;1.34;100.00;93930.88;5069289;28;20245;-74
2023/12/19 01:35:36;;;;;;;12.33;11.70;;;;;;;1.39;100.00;93933.69;5068361;28;20253;-74
2023/12/19 01:38:02;;;;;;;12.93;12.13;;;;;;;1.38;100.00;93942.41;5071087;28;20228;-74
2023/12/19 01:40:31;;;;;;;13.87;13.07;;;;;;;1.37;100.00;93922.78;5062581;28;20229;-73
2023/12/19 01:42:57;;;;;;;11.83;11.13;;;;;;;1.22;100.00;93921.31;5063695;28;20224;-74
2023/12/19 01:45:25;;;;;;;12.40;11.67;;;;;;;1.45;100.00;93935.50;5068569;28;20308;-74
2023/12/19 01:47:51;;;;;;;12.50;11.80;;;;;;;1.48;100.00;93935.13;5054458;28;20215;-74
2023/12/19 01:50:16;;;;;;;11.23;10.53;;;;;;;1.53;100.00;93940.50;5050128;28;20309;-75
2023/12/19 01:52:45;;;;;;;12.73;12.03;;;;;;;1.55;100.00;93930.00;5049857;28;20483;-74
2023/12/19 01:55:13;;;;;;;13.90;13.03;;;;;;;1.57;100.00;93936.53;5044990;28;20588;-74
2023/12/19 01:57:38;;;;;;;15.40;14.13;;;;;;;1.48;100.00;93922.25;5049377;28;20226;-74
2023/12/19 02:00:05;;;;;;;14.23;13.17;;;;;;;1.42;100.00;93917.06;5048974;28;20220;-74
2023/12/19 02:02:31;;;;;;;14.23;13.20;;;;;;;1.47;100.00;93920.69;5045170;28;20229;-74
2023/12/19 02:04:58;;;;;;;14.10;12.90;;;;;;;1.40;100.00;93916.50;5040743;28;20218;-75
2023/12/19 02:07:23;;;;;;;15.67;14.37;;;;;;;1.43;100.00;93909.16;5045459;28;20269;-77
2023/12/19 02:09:49;;;;;;;13.47;12.47;;;;;;;1.51;100.00;93914.16;5065985;28;20183;-73
2023/12/19 02:12:14;;;;;;;13.77;12.87;;;;;;;1.44;100.00;93915.09;5051475;28;20237;-74
2023/12/19 02:14:42;;;;;;;13.90;12.83;;;;;;;1.30;100.00;93873.09;5041525;28;20187;-73
2023/12/19 02:17:08;;;;;;;12.50;11.77;;;;;;;1.38;100.00;93914.09;5054776;28;20221;-73
2023/12/19 02:19:42;;;;;;;13.13;12.07;;;;;;;1.37;100.00;93904.78;5068181;28;20281;-73
2023/12/19 02:22:08;;;;;;;13.20;12.33;;;;;;;1.30;100.00;93914.25;5073136;28;20236;-72
2023/12/19 02:24:33;;;;;;;11.70;11.00;;;;;;;1.37;100.00;93917.66;5069563;28;20207;-73
2023/12/19 02:26:58;;;;;;;12.80;11.90;;;;;;;1.30;100.00;93924.56;5065087;28;20210;-73
2023/12/19 02:29:24;;;;;;;14.43;13.43;;;;;;;1.33;100.00;93915.66;5045613;28;20212;-73
2023/12/19 02:31:49;;;;;;;16.03;14.37;;;;;;;1.39;100.00;93909.75;5054972;28;20228;-75
2023/12/19 02:34:15;;;;;;;15.47;14.17;;;;;;;1.31;100.00;93908.13;5066960;28;21218;-73
2023/12/19 02:36:40;;;;;;;16.40;15.00;;;;;;;1.31;100.00;93904.75;5063119;28;20298;-74
2023/12/19 02:39:05;;;;;;;15.67;14.10;;;;;;;1.22;100.00;93905.91;5069648;28;20219;-73
2023/12/19 02:41:31;;;;;;;17.63;15.83;;;;;;;1.27;100.00;93899.22;5064773;28;20254;-73
2023/12/19 02:43:56;;;;;;;17.27;15.63;;;;;;;1.20;100.00;93897.56;5064062;28;20185;-73
2023/12/19 02:46:23;;;;;;;15.77;14.57;;;;;;;1.30;100.00;93908.31;5070534;28;20201;-74
2023/12/19 02:48:48;;;;;;;15.50;14.20;;;;;;;1.16;100.00;93902.31;5070358;28;20257;-73
2023/12/19 02:51:13;;;;;;;15.57;14.37;;;;;;;1.16;100.00;93892.03;5062681;28;20177;-73
2023/12/19 02:53:39;;;;;;;14.80;13.80;;;;;;;1.09;100.00;93898.13;5064919;28;20222;-73
2023/12/19 02:56:04;;;;;;;15.97;14.67;;;;;;;1.15;100.00;93895.56;5060982;28;20184;-73
2023/12/19 02:58:29;;;;;;;15.80;14.47;;;;;;;1.09;100.00;93887.84;5049862;28;20236;-73
2023/12/19 03:00:55;;;;;;;17.43;15.70;;;;;;;1.11;100.00;93889.22;5057430;28;20213;-73
2023/12/19 03:03:20;;;;;;;14.97;13.83;;;;;;;1.21;100.00;93876.84;5058693;28;20224;-73
2023/12/19 03:05:45;;;;;;;15.47;14.07;;;;;;;1.12;100.00;93882.31;5065338;28;20189;-73
2023/12/19 03:08:11;;;;;;;13.70;12.57;;;;;;;1.18;100.00;93884.91;5069113;28;20285;-73
2023/12/19 03:10:36;;;;;;;13.63;12.73;;;;;;;1.32;100.00;93890.91;5069448;28;20178;-73
2023/12/19 03:13:01;;;;;;;13.70;12.67;;;;;;;1.40;100.00;93888.97;5060966;28;20913;-73
2023/12/19 03:15:27;;;;;;;13.00;12.07;;;;;;;1.29;100.00;93884.38;5040235;28;20190;-73
2023/12/19 03:17:52;;;;;;;13.60;12.80;;;;;;;1.19;100.00;93889.06;5037937;28;20217;-73
2023/12/19 03:20:18;;;;;;;13.13;12.33;;;;;;;0.99;100.00;93865.03;5042878;28;20214;-74
2023/12/19 03:22:43;;;;;;;12.13;11.43;;;;;;;1.10;100.00;93897.13;5060478;28;20884;-72
2023/12/19 03:25:09;;;;;;;12.87;11.97;;;;;;;1.09;100.00;93896.34;5065921;28;20689;-74
2023/12/19 03:27:34;;;;;;;11.70;10.70;;;;;;;1.11;100.00;93893.56;5067997;28;20269;-74
2023/12/19 03:29:59;;;;;;;11.43;10.83;;;;;;;1.15;100.00;93885.28;5078985;28;20192;-73
2023/12/19 03:32:25;;;;;;;11.70;11.10;;;;;;;1.26;100.00;93895.03;5068302;28;20221;-73
2023/12/19 03:34:50;;;;;;;11.20;10.53;;;;;;;1.20;100.00;93893.22;5067609;28;20189;-73
2023/12/19 03:37:15;;;;;;;11.80;11.10;;;;;;;1.13;100.00;93884.69;5076457;28;20213;-73
2023/12/19 03:39:41;;;;;;;12.47;11.57;;;;;;;1.13;100.00;93876.19;5069918;28;20209;-73
2023/12/19 03:42:06;;;;;;;14.40;13.20;;;;;;;1.02;100.00;93887.00;5080563;28;20267;-73
2023/12/19 03:44:31;;;;;;;13.53;12.63;;;;;;;1.14;100.00;93882.91;5070350;28;20186;-73
2023/12/19 03:46:57;;;;;;;10.77;10.27;;;;;;;1.21;100.00;93884.53;5063037;28;20212;-73
2023/12/19 03:49:22;;;;;;;12.20;11.20;;;;;;;1.03;100.00;93876.53;5069395;28;20920;-73
2023/12/19 03:51:49;;;;;;;11.33;10.83;;;;;;;1.17;100.00;93887.66;5064025;28;20235;-75
2023/12/19 03:54:15;;;;;;;11.17;10.67;;;;;;;1.10;100.00;93872.22;5060985;28;20189;-74
2023/12/19 03:56:41;;;;;;;10.20;9.73;;;;;;;1.23;100.00;93877.41;5068092;28;20227;-74
2023/12/19 03:59:09;;;;;;;11.90;11.00;;;;;;;1.17;100.00;93867.88;5059668;28;20689;-73
2023/12/19 04:01:42;;;;;;;14.87;13.63;;;;;;;1.13;100.00;93864.13;5060434;28;20764;-73
2023/12/19 04:04:07;;;;;;;11.80;11.07;;;;;;;1.03;100.00;93848.25;5068317;28;20173;-73
2023/12/19 04:06:33;;;;;;;13.07;12.17;;;;;;;1.08;100.00;93858.75;5067829;28;20235;-74
2023/12/19 04:08:58;;;;;;;13.53;12.57;;;;;;;1.09;100.00;93857.75;5067845;28;20229;-73
2023/12/19 04:11:23;;;;;;;12.23;11.43;;;;;;;1.15;100.00;93854.41;5068245;28;20182;-74
2023/12/19 04:13:49;;;;;;;15.23;13.67;;;;;;;1.17;100.00;93867.09;5040148;28;20229;-73
2023/12/19 04:16:14;;;;;;;12.77;11.87;;;;;;;1.05;100.00;93866.84;5049827;28;20188;-73
2023/12/19 04:18:39;;;;;;;13.77;12.97;;;;;;;1.12;100.00;93859.94;5068891;28;20225;-75
2023/12/19 04:21:07;;;;;;;13.37;12.57;;;;;;;1.05;100.00;93856.56;5061674;28;20236;-74
2023/12/19 04:23:33;;;;;;;13.13;12.23;;;;;;;1.22;100.00;93865.56;5068982;28;20237;-74
2023/12/19 04:25:59;;;;;;;12.97;11.97;;;;;;;1.02;100.00;93849.25;5060124;28;20170;-74
2023/12/19 04:28:24;;;;;;;13.50;12.70;;;;;;;1.39;100.00;93866.81;5067530;28;20240;-73
2023/12/19 04:30:49;;;;;;;12.97;12.13;;;;;;;1.24;100.00;93868.72;5069348;28;20201;-74
2023/12/19 04:33:15;;;;;;;13.50;12.50;;;;;;;1.27;100.00;93868.34;5053013;28;20289;-74
2023/12/19 04:35:40;;;;;;;11.97;11.27;;;;;;;1.04;100.00;93852.38;5045916;28;20203;-74
2023/12/19 04:38:05;;;;;;;13.00;12.27;;;;;;;0.95;100.00;93868.97;5062646;28;20225;-75
2023/12/19 04:40:31;;;;;;;13.07;12.30;;;;;;;1.05;100.00;93878.91;5071100;28;20181;-76
2023/12/19 04:42:56;;;;;;;13.57;12.70;;;;;;;1.02;100.00;93864.66;5055182;28;20226;-76
2023/12/19 04:45:22;;;;;;;13.43;12.53;;;;;;;1.08;100.00;93875.94;5048598;28;20209;-76
2023/12/19 04:47:47;;;;;;;13.30;12.33;;;;;;;1.01;100.00;93863.06;5050842;28;20368;-76
2023/12/19 04:50:12;;;;;;;12.33;11.63;;;;;;;0.91;100.00;93872.91;5052207;28;20230;-77
2023/12/19 04:52:38;;;;;;;12.60;11.73;;;;;;;0.67;100.00;93857.16;5050288;28;20233;-82
2023/12/19 04:55:04;;;;;;;14.20;13.13;;;;;;;1.02;100.00;93876.72;5050224;28;20186;-78
2023/12/19 04:57:29;;;;;;;14.83;13.80;;;;;;;0.83;100.00;93883.31;5053824;28;20236;-79
2023/12/19 04:59:54;;;;;;;14.77;13.63;;;;;;;1.09;100.00;93901.47;5068719;28;20197;-85
2023/12/19 05:02:20;;;;;;;15.43;14.13;;;;;;;1.03;100.00;93891.94;5058562;28;20753;-79
2023/12/19 05:04:45;;;;;;;18.00;16.40;;;;;;;0.95;100.00;93894.66;5041417;28;20186;-80
2023/12/19 05:07:11;;;;;;;16.87;15.17;;;;;;;0.96;100.00;93891.13;5047487;28;20248;-82
2023/12/19 05:09:36;;;;;;;17.03;15.57;;;;;;;0.92;100.00;93889.91;5050899;28;20193;-79
2023/12/19 05:12:03;;;;;;;14.70;13.50;;;;;;;0.94;100.00;93893.09;5050876;28;20237;-77
2023/12/19 05:14:28;;;;;;;14.20;12.77;;;;;;;0.92;100.00;93895.03;5048476;28;20190;-75
2023/12/19 05:16:53;;;;;;;14.33;13.13;;;;;;;0.87;100.00;93897.38;5053498;28;20594;-74
2023/12/19 05:19:19;;;;;;;15.87;14.20;;;;;;;0.90;100.00;93889.28;5060528;28;20277;-73
2023/12/19 05:21:44;;;;;;;15.93;14.63;;;;;;;0.90;100.00;93898.81;5060129;28;20219;-74
2023/12/19 05:24:09;;;;;;;14.63;13.47;;;;;;;0.88;100.00;93888.72;5043253;28;21282;-75
2023/12/19 05:26:35;;;;;;;14.00;12.90;;;;;;;0.95;100.00;93896.47;5044271;28;20201;-74
2023/12/19 05:29:00;;;;;;;14.93;13.93;;;;;;;0.90;100.00;93884.16;5044917;28;20182;-73
2023/12/19 05:31:26;;;;;;;15.63;14.47;;;;;;;0.85;100.00;93889.09;5048215;28;20229;-79
2023/12/19 05:33:51;;;;;;;17.10;15.67;;;;;;;0.70;100.00;93867.03;5071431;28;20668;-78
2023/12/19 05:36:17;;;;;;;15.73;14.20;;;;;;;0.87;100.00;93876.81;5064448;28;20181;-73
2023/12/19 05:38:42;;;;;;;16.03;14.53;;;;;;;0.88;100.00;93883.56;5069595;28;20640;-77
2023/12/19 05:41:08;;;;;;;16.77;14.13;;;;;;;0.85;100.00;93901.94;5071650;28;20216;-76
2023/12/19 05:43:34;;;;;;;17.30;15.70;;;;;;;1.01;100.00;93893.91;5062387;28;20745;-76
2023/12/19 05:45:59;;;;;;;16.00;14.70;;;;;;;0.93;100.00;93895.84;5069062;28;20373;-76
2023/12/19 05:48:25;;;;;;;17.00;15.33;;;;;;;0.83;100.00;93896.19;5043783;28;20218;-76
2023/12/19 05:50:51;;;;;;;16.50;14.77;;;;;;;0.94;100.00;93910.28;5037979;28;20195;-76
2023/12/19 05:53:17;;;;;;;20.27;15.87;;;;;;;1.09;100.00;93905.84;5046377;28;20241;-76
2023/12/19 05:55:45;;;;;;;21.57;16.13;;;;;;;1.01;100.00;93906.75;5057205;28;20199;-81
2023/12/19 05:58:10;;;;;;;19.50;15.70;;;;;;;0.92;100.00;93889.91;5044070;28;20264;-74
2023/12/19 06:00:36;;;;;;;21.53;17.10;;;;;;;1.08;100.00;93902.47;5044654;28;20190;-75
2023/12/19 06:03:01;;;;;;;59.30;28.97;;;;;;;1.08;100.00;93902.47;5047541;28;20249;-75
2023/12/19 06:05:27;;;;;;;48.57;25.67;;;;;;;0.94;100.00;93884.56;5039060;28;20190;-76
2023/12/19 06:07:52;;;;;;;30.23;22.43;;;;;;;1.11;100.00;93894.38;5054958;28;20255;-77
2023/12/19 06:10:17;;;;;;;33.60;20.63;;;;;;;1.06;100.00;93891.56;5065334;28;20205;-75
2023/12/19 06:12:43;;;;;;;26.10;17.90;;;;;;;0.95;100.00;93875.91;5077658;28;20228;-75
2023/12/19 06:15:13;;;;;;;19.57;17.17;;;;;;;1.06;100.00;93896.72;5065317;28;20434;-75
2023/12/19 06:17:48;;;;;;;16.90;15.27;;;;;;;1.08;100.00;93889.59;5072845;28;20637;-73
2023/12/19 06:20:13;;;;;;;19.90;16.67;;;;;;;1.07;100.00;93890.59;5071716;28;20713;-77
2023/12/19 06:22:43;;;;;;;25.17;18.40;;;;;;;1.19;100.00;93889.06;5052303;28;20230;-78
2023/12/19 06:25:08;;;;;;;27.87;20.00;;;;;;;1.05;100.00;93872.00;5048064;28;20186;-76
2023/12/19 06:27:34;;;;;;;28.40;20.77;;;;;;;1.12;100.00;93888.22;5047151;28;20214;-76
2023/12/19 06:30:00;;;;;;;37.30;26.13;;;;;;;1.07;100.00;93870.03;5042642;28;20193;-76
2023/12/19 06:32:26;;;;;;;41.77;27.80;;;;;;;1.30;100.00;93883.41;5035742;28;20302;-77
2023/12/19 06:34:51;;;;;;;53.77;31.07;;;;;;;1.42;100.00;93876.72;5040849;28;20174;-79
2023/12/19 06:37:16;;;;;;;40.33;28.63;;;;;;;1.33;100.00;93867.56;5039258;28;20218;-78
2023/12/19 06:39:42;;;;;;;33.87;23.40;;;;;;;1.48;100.00;93886.22;5045161;28;20260;-78
2023/12/19 06:42:08;;;;;;;32.37;23.17;;;;;;;1.40;100.00;93881.25;5042681;28;20230;-77
2023/12/19 06:44:33;;;;;;;34.80;23.50;;;;;;;1.51;100.00;93885.03;5041898;28;20189;-77
2023/12/19 06:46:58;;;;;;;27.43;21.37;;;;;;;1.35;100.00;93870.72;5045113;28;20237;-78
2023/12/19 06:49:26;;;;;;;36.47;23.63;;;;;;;1.49;100.00;93864.66;5063011;28;20185;-78
2023/12/19 06:51:52;;;;;;;33.80;24.80;;;;;;;1.55;100.00;93884.50;5063076;28;20222;-75
2023/12/19 06:54:18;;;;;;;29.13;24.23;;;;;;;1.57;100.00;93876.56;5071286;28;20185;-77
2023/12/19 06:56:43;;;;;;;34.00;23.97;;;;;;;1.73;100.00;93883.16;5077016;28;20248;-78
2023/12/19 06:59:09;;;;;;;29.00;23.27;;;;;;;1.60;100.00;93874.38;5068862;28;20190;-77
2023/12/19 07:01:35;;;;;;;31.70;22.27;;;;;;;1.78;100.00;93878.19;5067376;28;20197;-77
2023/12/19 07:04:00;;;;;;;23.17;20.30;;;;;;;1.91;100.00;93906.56;5069663;28;20173;-78
2023/12/19 07:06:26;;;;;;;24.03;19.97;;;;;;;1.98;100.00;93897.09;5064738;28;20718;-78
2023/12/19 07:08:52;;;;;;;22.13;19.67;;;;;;;1.89;100.00;93882.78;5067498;28;20189;-78
2023/12/19 07:11:17;;;;;;;22.03;19.73;;;;;;;2.05;100.00;93898.69;5069738;28;20212;-75
2023/12/19 07:13:43;;;;;;;21.73;18.60;;;;;;;1.96;100.00;93891.34;5063345;28;20203;-78
2023/12/19 07:16:17;;;;;;;21.43;19.40;;;;;;;2.11;100.00;93899.69;5059179;28;20186;-77
2023/12/19 07:18:43;;;;;;;20.10;18.10;;;;;;;2.17;100.00;93906.63;5061527;28;20266;-80
2023/12/19 07:21:23;;;;;;;29.23;22.37;;;;;;;2.20;100.00;93911.38;5065307;28;20310;-78
2023/12/19 07:23:50;;;;;;;24.53;19.47;;;;;;;2.23;100.00;93922.09;5036511;28;20224;-78
2023/12/19 07:26:26;;;;;;;24.47;21.63;;;;;;;2.36;100.00;93921.31;5043789;28;20214;-78
2023/12/19 07:28:52;;;;;;;25.23;20.80;;;;;;;2.33;100.00;93886.44;5038209;28;20261;-77
2023/12/19 07:31:31;;;;;;;26.20;21.03;;;;;;;2.48;100.00;93910.22;5042907;28;20218;-76
2023/12/19 07:33:58;;;;;;;23.93;19.40;;;;;;;2.57;100.00;93905.69;5069682;28;20201;-77
2023/12/19 07:36:24;;;;;;;25.00;21.60;;;;;;;2.45;100.00;93899.50;5065871;28;20185;-81
2023/12/19 07:38:50;;;;;;;34.93;20.67;;;;;;;2.59;100.00;93885.63;5064877;28;20178;-76
2023/12/19 07:41:16;;;;;;;27.20;21.43;;;;;;;2.69;100.00;93880.88;5066981;28;20188;-76
2023/12/19 07:43:41;;;;;;;22.30;19.90;;;;;;;2.69;100.00;93861.03;5060001;28;20341;-74
2023/12/19 07:46:07;;;;;;;23.23;20.77;;;;;;;2.93;100.00;93868.16;5069498;28;20207;-78
2023/12/19 07:48:33;;;;;;;25.17;22.57;;;;;;;3.09;100.00;93882.41;5068544;28;20221;-77
2023/12/19 07:50:59;;;;;;;29.47;23.80;;;;;;;3.19;100.00;93875.06;5066441;28;20205;-77
2023/12/19 07:53:28;;;;;;;25.93;22.23;;;;;;;3.06;100.00;93877.66;5064125;28;20217;-76
2023/12/19 07:55:54;;;;;;;27.20;21.37;;;;;;;3.05;100.00;93863.97;5068451;28;20182;-75
2023/12/19 07:58:19;;;;;;;22.23;19.23;;;;;;;3.40;99.90;93877.38;5064475;28;20236;-76
2023/12/19 08:00:45;;;;;;;24.50;20.40;;;;;;;3.48;98.87;93869.41;5068242;28;20300;-78
2023/12/19 08:03:11;;;;;;;26.00;22.07;;;;;;;3.44;98.53;93857.88;5068252;28;20232;-80
2023/12/19 08:05:36;;;;;;;26.50;22.47;;;;;;;3.54;98.60;93871.16;5072166;28;20245;-75
2023/12/19 08:08:02;;;;;;;29.03;23.90;;;;;;;3.60;99.11;93875.50;5070706;28;20228;-77
2023/12/19 08:10:27;;;;;;;29.13;22.43;;;;;;;3.51;99.23;93860.44;5072217;28;20185;-76
2023/12/19 08:12:54;;;;;;;32.67;28.00;;;;;;;3.53;99.33;93861.84;5087925;28;20217;-76
2023/12/19 08:15:20;;;;;;;36.70;27.80;;;;;;;3.66;98.87;93858.41;5066776;28;20253;-75
2023/12/19 08:17:45;;;;;;;43.47;32.27;;;;;;;3.96;98.12;93870.56;5054251;28;20219;-77
2023/12/19 08:20:15;;;;;;;44.53;31.73;;;;;;;4.09;95.61;93873.06;5048605;28;20221;-76
2023/12/19 08:22:41;;;;;;;43.43;32.83;;;;;;;4.05;95.09;93861.56;5051445;28;20221;-77
2023/12/19 08:25:06;;;;;;;44.30;33.93;;;;;;;4.00;95.84;93868.34;5049979;28;20186;-76
2023/12/19 08:27:35;;;;;;;55.40;34.63;;;;;;;3.81;96.75;93877.81;5037717;28;20225;-75
2023/12/19 08:30:03;;;;;;;43.03;33.63;;;;;;;3.84;96.76;93872.22;5043969;28;20211;-77
2023/12/19 08:32:29;;;;;;;44.80;34.07;;;;;;;3.71;97.38;93877.44;5053157;28;20213;-76
2023/12/19 08:34:55;;;;;;;42.67;32.33;;;;;;;3.72;96.45;93860.16;5047369;28;20182;-76
2023/12/19 08:37:20;;;;;;;42.33;32.23;;;;;;;3.93;95.96;93870.16;5051601;28;20241;-75
2023/12/19 08:39:46;;;;;;;42.97;32.93;;;;;;;3.95;96.39;93860.44;5047796;28;20181;-75
2023/12/19 08:42:11;;;;;;;46.23;35.27;;;;;;;4.08;95.68;93843.06;5054373;28;20230;-76
2023/12/19 08:44:38;;;;;;;45.43;33.77;;;;;;;4.17;95.33;93843.59;5045974;28;20202;-76
2023/12/19 08:47:05;;;;;;;53.20;34.73;;;;;;;4.34;95.26;93853.19;5052539;28;20236;-75
2023/12/19 08:49:31;;;;;;;40.63;34.17;;;;;;;4.25;95.43;93841.53;5046736;28;20203;-76
2023/12/19 08:51:56;;;;;;;45.90;33.60;;;;;;;4.23;95.84;93845.34;5050807;28;20240;-76
2023/12/19 08:54:21;;;;;;;41.80;34.10;;;;;;;4.08;96.23;93827.53;5046291;28;20289;-76
2023/12/19 08:56:47;;;;;;;43.27;34.47;;;;;;;4.33;95.59;93820.59;5050730;28;20296;-76
2023/12/19 08:59:12;;;;;;;48.33;35.47;;;;;;;4.53;95.50;93821.25;5043368;28;20270;-75
2023/12/19 09:01:37;;;;;;;53.03;35.37;;;;;;;4.73;95.02;93816.69;5051539;28;20230;-75
2023/12/19 09:04:03;;;;;;;55.00;35.13;;;;;;;4.85;94.40;93820.16;5049234;28;20194;-76
2023/12/19 09:06:28;;;;;;;43.00;33.77;;;;;;;4.89;93.06;93794.63;5053170;28;20182;-76
2023/12/19 09:08:53;;;;;;;41.13;34.27;;;;;;;4.87;92.19;93800.03;5070315;28;20211;-75
2023/12/19 09:11:19;;;;;;;44.03;33.33;;;;;;;4.86;93.05;93813.97;5070743;28;20189;-75
2023/12/19 09:13:44;;;;;;;43.73;32.10;;;;;;;4.95;92.15;93820.44;5071637;28;20217;-76
2023/12/19 09:16:09;;;;;;;51.80;36.87;;;;;;;4.65;93.37;93814.34;5071924;28;20185;-77
2023/12/19 09:18:35;;;;;;;55.07;37.43;;;;;;;4.94;92.10;93812.91;5050055;28;20279;-77
2023/12/19 09:21:01;;;;;;;52.07;37.93;;;;;;;5.00;91.59;93806.09;5044548;28;20212;-78
2023/12/19 09:23:26;;;;;;;57.17;38.17;;;;;;;4.67;92.62;93796.84;5047669;28;20222;-77
2023/12/19 09:25:51;;;;;;;54.97;38.63;;;;;;;4.45;94.20;93780.13;5049576;28;20228;-81
2023/12/19 09:28:17;;;;;;;48.30;38.40;;;;;;;4.78;92.98;93790.16;5056873;28;20241;-78
2023/12/19 09:30:42;;;;;;;50.30;38.17;;;;;;;5.02;92.45;93788.53;5064159;28;20197;-76
2023/12/19 09:33:07;;;;;;;54.33;38.83;;;;;;;5.00;91.82;93770.63;5068336;28;20244;-75
2023/12/19 09:35:33;;;;;;;56.23;40.83;;;;;;;5.29;90.17;93789.81;5068322;28;20189;-77
2023/12/19 09:38:01;;;;;;;60.47;40.90;;;;;;;5.21;90.18;93772.78;5070663;28;20225;-76
2023/12/19 09:40:29;;;;;;;55.93;41.47;;;;;;;5.24;90.86;93789.69;5067536;28;20216;-76
2023/12/19 09:42:56;;;;;;;54.23;41.50;;;;;;;5.21;91.67;93790.13;5060217;28;20221;-76
2023/12/19 09:45:22;;;;;;;62.43;43.67;;;;;;;5.24;91.76;93789.69;5068106;28;20267;-75
2023/12/19 09:47:58;;;;;;;61.33;41.97;;;;;;;5.11;91.96;93787.22;5069235;28;20269;-76
2023/12/19 09:50:26;;;;;;;57.10;41.93;;;;;;;5.24;91.19;93782.72;5061260;28;20190;-75
2023/12/19 09:52:53;;;;;;;60.30;42.83;;;;;;;5.21;91.07;93767.63;5056909;28;20210;-75
2023/12/19 09:55:18;;;;;;;64.80;45.13;;;;;;;5.37;91.48;93771.41;5047561;28;20174;-75
2023/12/19 09:57:45;;;;;;;68.10;43.50;;;;;;;5.64;89.49;93783.81;5057236;28;20225;-75
2023/12/19 10:00:11;;;;;;;63.67;43.33;;;;;;;5.41;90.74;93764.78;5066478;28;20192;-74
2023/12/19 10:02:38;;;;;;;62.43;46.00;;;;;;;5.69;89.20;93765.00;5064042;28;20233;-76
2023/12/19 10:05:05;;;;;;;62.50;42.07;;;;;;;5.49;90.19;93765.28;5069161;28;20190;-75
2023/12/19 10:07:30;;;;;;;63.60;42.90;;;;;;;5.22;92.40;93753.66;5064728;28;20221;-76
2023/12/19 10:09:56;;;;;;;62.07;45.93;;;;;;;5.06;94.43;93754.25;5068619;28;20289;-76
2023/12/19 10:12:27;;;;;;;63.80;44.67;;;;;;;5.37;93.03;93750.69;5071194;28;20217;-76
2023/12/19 10:14:53;;;;;;;63.23;45.00;;;;;;;5.42;93.65;93750.81;5062342;28;20240;-75
2023/12/19 10:17:18;;;;;;;63.50;45.47;;;;;;;5.58;92.18;93747.63;5070132;28;20221;-77
2023/12/19 10:19:44;;;;;;;60.33;46.10;;;;;;;5.67;91.11;93741.91;5070640;28;20249;-76
2023/12/19 10:22:13;;;;;;;62.07;43.57;;;;;;;5.81;91.34;93747.69;5086007;28;20222;-75
2023/12/19 10:24:38;;;;;;;59.97;42.67;;;;;;;5.91;90.70;93743.59;5068639;28;20170;-76
2023/12/19 10:27:08;;;;;;;61.40;43.27;;;;;;;5.96;90.70;93729.97;5068542;28;20224;-77
2023/12/19 10:29:37;;;;;;;60.60;42.60;;;;;;;6.02;89.81;93729.84;5067846;28;20204;-76
2023/12/19 10:32:21;;;;;;;61.73;42.93;;;;;;;5.99;89.51;93734.72;5067627;28;20225;-75
2023/12/19 10:34:55;;;;;;;52.67;40.30;;;;;;;5.73;90.78;93727.25;5068259;28;20177;-75
2023/12/19 10:37:20;;;;;;;60.43;43.40;;;;;;;5.68;91.56;93727.16;5063199;28;20280;-75
2023/12/19 10:39:47;;;;;;;59.83;44.37;;;;;;;5.96;90.95;93714.41;5069932;28;20238;-77
2023/12/19 10:42:13;;;;;;;56.57;41.93;;;;;;;6.05;90.85;93708.69;5068789;28;20259;-76
2023/12/19 10:44:39;;;;;;;63.43;45.70;;;;;;;6.12;91.04;93703.38;5063940;28;20173;-76
2023/12/19 10:47:09;;;;;;;65.63;45.53;;;;;;;6.39;89.72;93704.53;5070241;28;20267;-75
2023/12/19 10:49:36;;;;;;;66.50;46.03;;;;;;;6.41;89.07;93694.72;5064604;28;20181;-79
2023/12/19 10:52:05;;;;;;;66.10;44.17;;;;;;;6.52;89.37;93693.94;5053883;28;20249;-78
2023/12/19 10:54:33;;;;;;;71.77;43.43;;;;;;;6.65;88.97;93685.88;5052499;28;20190;-76
2023/12/19 10:57:08;;;;;;;59.40;43.33;;;;;;;6.71;89.65;93682.38;5049469;28;20221;-77
2023/12/19 11:00:21;;;;;;;66.57;43.40;;;;;;;6.75;90.51;93678.31;5045389;28;20232;-75
2023/12/19 11:03:12;;;;;;;64.33;44.20;;;;;;;6.97;89.03;93670.72;4987226;28;20227;-74
2023/12/19 11:05:41;;;;;;;72.70;46.57;;;;;;;6.90;89.57;93664.84;4987588;28;20234;-74
2023/12/19 11:08:17;;;;;;;72.63;45.43;;;;;;;7.02;89.39;93657.81;5033342;28;20241;-76
2023/12/19 11:11:03;;;;;;;66.83;42.13;;;;;;;7.10;89.33;93653.03;5069279;28;20246;-74
2023/12/19 11:13:31;;;;;;;65.53;44.87;;;;;;;7.21;88.65;93652.22;5065474;28;20259;-77
2023/12/19 11:16:08;;;;;;;75.80;48.70;;;;;;;7.23;87.80;93645.00;5063219;28;20193;-76